sensor_id;sensor_type;location;lat;lon;timestamp;P1;durP1;ratioP1;P2;durP2;ratioP2
47329;SDS011;33060;50.178;7.570;2024-02-21T00:00:34;13.73;;;5.47;;
47329;SDS011;33060;50.178;7.570;2024-02-21T00:05:28;11.77;;;4.97;;
47329;SDS011;33060;50.178;7.570;2024-02-21T00:10:22;12.05;;;4.20;;
47329;SDS011;33060;50.178;7.570;2024-02-21T00:12:49;14.95;;;4.22;;
47329;SDS011;33060;50.178;7.570;2024-02-21T00:15:15;15.35;;;5.22;;
47329;SDS011;33060;50.178;7.570;2024-02-21T00:17:43;14.73;;;5.00;;
47329;SDS011;33060;50.178;7.570;2024-02-21T00:20:10;11.68;;;5.05;;
47329;SDS011;33060;50.178;7.570;2024-02-21T00:25:04;12.43;;;5.22;;
47329;SDS011;33060;50.178;7.570;2024-02-21T00:29:58;14.70;;;4.80;;
47329;SDS011;33060;50.178;7.570;2024-02-21T00:32:25;12.18;;;4.80;;
47329;SDS011;33060;50.178;7.570;2024-02-21T00:37:19;15.07;;;5.63;;
47329;SDS011;33060;50.178;7.570;2024-02-21T00:39:45;10.88;;;4.13;;
47329;SDS011;33060;50.178;7.570;2024-02-21T00:42:12;12.70;;;4.72;;
47329;SDS011;33060;50.178;7.570;2024-02-21T00:44:39;15.52;;;4.18;;
47329;SDS011;33060;50.178;7.570;2024-02-21T00:47:05;12.10;;;4.93;;
47329;SDS011;33060;50.178;7.570;2024-02-21T00:49:32;14.18;;;5.75;;
47329;SDS011;33060;50.178;7.570;2024-02-21T00:51:59;10.95;;;4.85;;
47329;SDS011;33060;50.178;7.570;2024-02-21T00:54:26;14.57;;;5.28;;
47329;SDS011;33060;50.178;7.570;2024-02-21T00:57:01;16.73;;;5.38;;
47329;SDS011;33060;50.178;7.570;2024-02-21T00:59:28;14.70;;;5.45;;
47329;SDS011;33060;50.178;7.570;2024-02-21T01:01:55;11.77;;;4.72;;
47329;SDS011;33060;50.178;7.570;2024-02-21T01:04:21;10.93;;;4.63;;
47329;SDS011;33060;50.178;7.570;2024-02-21T01:06:51;12.05;;;5.13;;
47329;SDS011;33060;50.178;7.570;2024-02-21T01:09:17;14.90;;;5.18;;
47329;SDS011;33060;50.178;7.570;2024-02-21T01:11:44;12.70;;;4.70;;
47329;SDS011;33060;50.178;7.570;2024-02-21T01:14:11;12.68;;;4.22;;
47329;SDS011;33060;50.178;7.570;2024-02-21T01:19:04;11.63;;;4.38;;
47329;SDS011;33060;50.178;7.570;2024-02-21T01:21:31;14.65;;;5.03;;
47329;SDS011;33060;50.178;7.570;2024-02-21T01:23:57;11.90;;;4.70;;
47329;SDS011;33060;50.178;7.570;2024-02-21T01:26:24;14.38;;;4.68;;
47329;SDS011;33060;50.178;7.570;2024-02-21T01:28:51;13.85;;;5.60;;
47329;SDS011;33060;50.178;7.570;2024-02-21T01:31:18;13.10;;;5.78;;
47329;SDS011;33060;50.178;7.570;2024-02-21T01:33:45;12.70;;;4.95;;
47329;SDS011;33060;50.178;7.570;2024-02-21T01:36:12;12.70;;;4.45;;
47329;SDS011;33060;50.178;7.570;2024-02-21T01:38:38;14.57;;;4.65;;
47329;SDS011;33060;50.178;7.570;2024-02-21T01:41:05;12.75;;;4.82;;
47329;SDS011;33060;50.178;7.570;2024-02-21T01:43:32;14.30;;;4.85;;
47329;SDS011;33060;50.178;7.570;2024-02-21T01:45:59;12.98;;;4.70;;
47329;SDS011;33060;50.178;7.570;2024-02-21T01:48:26;16.10;;;4.50;;
47329;SDS011;33060;50.178;7.570;2024-02-21T01:53:21;14.75;;;5.22;;
47329;SDS011;33060;50.178;7.570;2024-02-21T01:55:51;11.13;;;4.82;;
47329;SDS011;33060;50.178;7.570;2024-02-21T01:58:19;14.55;;;4.70;;
47329;SDS011;33060;50.178;7.570;2024-02-21T02:00:47;13.68;;;4.53;;
47329;SDS011;33060;50.178;7.570;2024-02-21T02:03:14;15.93;;;4.95;;
47329;SDS011;33060;50.178;7.570;2024-02-21T02:05:44;12.63;;;4.72;;
47329;SDS011;33060;50.178;7.570;2024-02-21T02:08:15;12.70;;;4.70;;
47329;SDS011;33060;50.178;7.570;2024-02-21T02:10:43;13.48;;;5.15;;
47329;SDS011;33060;50.178;7.570;2024-02-21T02:13:11;12.02;;;4.55;;
47329;SDS011;33060;50.178;7.570;2024-02-21T02:15:41;12.52;;;4.38;;
47329;SDS011;33060;50.178;7.570;2024-02-21T02:18:09;13.48;;;5.22;;
47329;SDS011;33060;50.178;7.570;2024-02-21T02:20:36;14.00;;;4.30;;
47329;SDS011;33060;50.178;7.570;2024-02-21T02:23:06;12.88;;;5.25;;
47329;SDS011;33060;50.178;7.570;2024-02-21T02:25:37;16.65;;;5.20;;
47329;SDS011;33060;50.178;7.570;2024-02-21T02:28:08;11.82;;;4.57;;
47329;SDS011;33060;50.178;7.570;2024-02-21T02:30:35;14.02;;;5.50;;
47329;SDS011;33060;50.178;7.570;2024-02-21T02:33:05;13.63;;;4.68;;
47329;SDS011;33060;50.178;7.570;2024-02-21T02:35:32;12.70;;;4.80;;
47329;SDS011;33060;50.178;7.570;2024-02-21T02:38:02;18.73;;;6.18;;
47329;SDS011;33060;50.178;7.570;2024-02-21T02:40:30;12.48;;;4.97;;
47329;SDS011;33060;50.178;7.570;2024-02-21T02:42:57;10.38;;;4.75;;
47329;SDS011;33060;50.178;7.570;2024-02-21T02:45:24;12.68;;;4.88;;
47329;SDS011;33060;50.178;7.570;2024-02-21T02:47:53;12.90;;;4.90;;
47329;SDS011;33060;50.178;7.570;2024-02-21T02:50:21;12.10;;;4.50;;
47329;SDS011;33060;50.178;7.570;2024-02-21T02:52:47;10.27;;;3.92;;
47329;SDS011;33060;50.178;7.570;2024-02-21T02:55:15;12.82;;;5.70;;
47329;SDS011;33060;50.178;7.570;2024-02-21T02:57:42;14.63;;;5.18;;
47329;SDS011;33060;50.178;7.570;2024-02-21T03:00:10;13.02;;;4.65;;
47329;SDS011;33060;50.178;7.570;2024-02-21T03:02:41;12.75;;;4.82;;
47329;SDS011;33060;50.178;7.570;2024-02-21T03:05:13;13.40;;;4.38;;
47329;SDS011;33060;50.178;7.570;2024-02-21T03:07:42;11.05;;;4.90;;
47329;SDS011;33060;50.178;7.570;2024-02-21T03:10:10;10.25;;;3.83;;
47329;SDS011;33060;50.178;7.570;2024-02-21T03:12:37;10.68;;;4.07;;
47329;SDS011;33060;50.178;7.570;2024-02-21T03:15:05;12.73;;;4.78;;
47329;SDS011;33060;50.178;7.570;2024-02-21T03:17:32;10.38;;;4.35;;
47329;SDS011;33060;50.178;7.570;2024-02-21T03:20:04;11.70;;;4.00;;
47329;SDS011;33060;50.178;7.570;2024-02-21T03:22:40;13.35;;;4.18;;
47329;SDS011;33060;50.178;7.570;2024-02-21T03:25:10;10.95;;;3.95;;
47329;SDS011;33060;50.178;7.570;2024-02-21T03:27:37;8.75;;;4.10;;
47329;SDS011;33060;50.178;7.570;2024-02-21T03:30:05;12.38;;;3.63;;
47329;SDS011;33060;50.178;7.570;2024-02-21T03:32:31;10.60;;;4.22;;
47329;SDS011;33060;50.178;7.570;2024-02-21T03:34:58;8.00;;;3.95;;
47329;SDS011;33060;50.178;7.570;2024-02-21T03:37:25;11.50;;;4.63;;
47329;SDS011;33060;50.178;7.570;2024-02-21T03:39:52;10.23;;;3.90;;
47329;SDS011;33060;50.178;7.570;2024-02-21T03:42:19;11.18;;;4.47;;
47329;SDS011;33060;50.178;7.570;2024-02-21T03:44:45;9.40;;;4.63;;
47329;SDS011;33060;50.178;7.570;2024-02-21T03:47:12;10.48;;;4.07;;
47329;SDS011;33060;50.178;7.570;2024-02-21T03:49:39;11.32;;;3.63;;
47329;SDS011;33060;50.178;7.570;2024-02-21T03:54:33;14.50;;;3.90;;
47329;SDS011;33060;50.178;7.570;2024-02-21T03:56:59;9.38;;;3.97;;
47329;SDS011;33060;50.178;7.570;2024-02-21T03:59:26;7.35;;;3.58;;
47329;SDS011;33060;50.178;7.570;2024-02-21T04:01:53;9.20;;;4.32;;
47329;SDS011;33060;50.178;7.570;2024-02-21T04:04:20;11.40;;;4.65;;
47329;SDS011;33060;50.178;7.570;2024-02-21T04:06:47;9.52;;;4.43;;
47329;SDS011;33060;50.178;7.570;2024-02-21T04:09:17;9.35;;;4.18;;
47329;SDS011;33060;50.178;7.570;2024-02-21T04:11:44;13.07;;;4.70;;
47329;SDS011;33060;50.178;7.570;2024-02-21T04:14:11;10.50;;;3.85;;
47329;SDS011;33060;50.178;7.570;2024-02-21T04:16:38;10.13;;;4.28;;
47329;SDS011;33060;50.178;7.570;2024-02-21T04:19:06;11.20;;;4.03;;
47329;SDS011;33060;50.178;7.570;2024-02-21T04:24:01;10.20;;;3.90;;
47329;SDS011;33060;50.178;7.570;2024-02-21T04:26:30;11.63;;;4.18;;
47329;SDS011;33060;50.178;7.570;2024-02-21T04:28:57;9.50;;;4.15;;
47329;SDS011;33060;50.178;7.570;2024-02-21T04:31:23;9.15;;;3.88;;
47329;SDS011;33060;50.178;7.570;2024-02-21T04:33:51;11.68;;;4.55;;
47329;SDS011;33060;50.178;7.570;2024-02-21T04:36:18;12.07;;;4.22;;
47329;SDS011;33060;50.178;7.570;2024-02-21T04:38:45;16.13;;;4.80;;
47329;SDS011;33060;50.178;7.570;2024-02-21T04:41:11;8.43;;;4.20;;
47329;SDS011;33060;50.178;7.570;2024-02-21T04:43:38;11.10;;;3.75;;
47329;SDS011;33060;50.178;7.570;2024-02-21T04:46:05;12.55;;;4.25;;
47329;SDS011;33060;50.178;7.570;2024-02-21T04:48:31;10.50;;;4.10;;
47329;SDS011;33060;50.178;7.570;2024-02-21T04:50:58;13.07;;;4.70;;
47329;SDS011;33060;50.178;7.570;2024-02-21T04:53:25;11.30;;;4.65;;
47329;SDS011;33060;50.178;7.570;2024-02-21T04:55:52;12.10;;;3.92;;
47329;SDS011;33060;50.178;7.570;2024-02-21T04:58:18;14.02;;;4.65;;
47329;SDS011;33060;50.178;7.570;2024-02-21T05:00:45;14.48;;;4.63;;
47329;SDS011;33060;50.178;7.570;2024-02-21T05:03:12;8.10;;;3.28;;
47329;SDS011;33060;50.178;7.570;2024-02-21T05:05:39;12.05;;;4.70;;
47329;SDS011;33060;50.178;7.570;2024-02-21T05:10:32;14.45;;;4.18;;
47329;SDS011;33060;50.178;7.570;2024-02-21T05:12:59;9.60;;;4.22;;
47329;SDS011;33060;50.178;7.570;2024-02-21T05:15:26;8.57;;;3.85;;
47329;SDS011;33060;50.178;7.570;2024-02-21T05:17:53;7.63;;;3.80;;
47329;SDS011;33060;50.178;7.570;2024-02-21T05:20:20;11.98;;;4.30;;
47329;SDS011;33060;50.178;7.570;2024-02-21T05:25:14;11.75;;;4.07;;
47329;SDS011;33060;50.178;7.570;2024-02-21T05:27:41;14.07;;;3.92;;
47329;SDS011;33060;50.178;7.570;2024-02-21T05:30:07;13.07;;;4.28;;
47329;SDS011;33060;50.178;7.570;2024-02-21T05:35:01;9.20;;;4.05;;
47329;SDS011;33060;50.178;7.570;2024-02-21T05:39:54;9.82;;;4.00;;
47329;SDS011;33060;50.178;7.570;2024-02-21T05:42:21;12.90;;;4.22;;
47329;SDS011;33060;50.178;7.570;2024-02-21T05:44:48;9.90;;;3.90;;
47329;SDS011;33060;50.178;7.570;2024-02-21T05:47:14;9.35;;;3.95;;
47329;SDS011;33060;50.178;7.570;2024-02-21T05:49:42;8.88;;;3.60;;
47329;SDS011;33060;50.178;7.570;2024-02-21T05:52:09;10.68;;;4.10;;
47329;SDS011;33060;50.178;7.570;2024-02-21T05:57:04;13.10;;;4.07;;
47329;SDS011;33060;50.178;7.570;2024-02-21T05:59:30;10.40;;;3.72;;
47329;SDS011;33060;50.178;7.570;2024-02-21T06:01:57;8.57;;;3.50;;
47329;SDS011;33060;50.178;7.570;2024-02-21T06:04:25;11.25;;;3.88;;
47329;SDS011;33060;50.178;7.570;2024-02-21T06:06:51;9.80;;;4.03;;
47329;SDS011;33060;50.178;7.570;2024-02-21T06:09:18;16.60;;;4.82;;
47329;SDS011;33060;50.178;7.570;2024-02-21T06:11:45;9.68;;;4.10;;
47329;SDS011;33060;50.178;7.570;2024-02-21T06:14:13;22.25;;;10.60;;
47329;SDS011;33060;50.178;7.570;2024-02-21T06:16:39;25.58;;;12.15;;
47329;SDS011;33060;50.178;7.570;2024-02-21T06:19:06;22.52;;;12.35;;
47329;SDS011;33060;50.178;7.570;2024-02-21T06:21:36;19.80;;;10.25;;
47329;SDS011;33060;50.178;7.570;2024-02-21T06:24:03;14.52;;;6.00;;
47329;SDS011;33060;50.178;7.570;2024-02-21T06:26:30;13.80;;;5.45;;
47329;SDS011;33060;50.178;7.570;2024-02-21T06:28:57;12.95;;;4.80;;
47329;SDS011;33060;50.178;7.570;2024-02-21T06:31:26;8.45;;;4.10;;
47329;SDS011;33060;50.178;7.570;2024-02-21T06:33:54;12.05;;;4.93;;
47329;SDS011;33060;50.178;7.570;2024-02-21T06:38:48;13.68;;;4.55;;
47329;SDS011;33060;50.178;7.570;2024-02-21T06:41:18;12.75;;;4.78;;
47329;SDS011;33060;50.178;7.570;2024-02-21T06:43:47;11.10;;;4.35;;
47329;SDS011;33060;50.178;7.570;2024-02-21T06:46:24;10.73;;;3.88;;
47329;SDS011;33060;50.178;7.570;2024-02-21T06:48:55;10.68;;;4.15;;
47329;SDS011;33060;50.178;7.570;2024-02-21T06:51:24;11.38;;;3.50;;
47329;SDS011;33060;50.178;7.570;2024-02-21T06:53:53;12.70;;;4.00;;
47329;SDS011;33060;50.178;7.570;2024-02-21T06:56:24;12.65;;;4.32;;
47329;SDS011;33060;50.178;7.570;2024-02-21T06:58:53;10.18;;;3.88;;
47329;SDS011;33060;50.178;7.570;2024-02-21T07:03:47;10.48;;;3.85;;
47329;SDS011;33060;50.178;7.570;2024-02-21T07:06:14;12.10;;;4.15;;
47329;SDS011;33060;50.178;7.570;2024-02-21T07:08:41;9.48;;;3.45;;
47329;SDS011;33060;50.178;7.570;2024-02-21T07:11:07;7.53;;;3.47;;
47329;SDS011;33060;50.178;7.570;2024-02-21T07:16:01;11.13;;;4.53;;
47329;SDS011;33060;50.178;7.570;2024-02-21T07:18:27;9.25;;;3.83;;
47329;SDS011;33060;50.178;7.570;2024-02-21T07:20:54;11.00;;;3.75;;
47329;SDS011;33060;50.178;7.570;2024-02-21T07:23:22;10.35;;;4.10;;
47329;SDS011;33060;50.178;7.570;2024-02-21T07:25:49;10.15;;;3.75;;
47329;SDS011;33060;50.178;7.570;2024-02-21T07:28:16;9.82;;;4.45;;
47329;SDS011;33060;50.178;7.570;2024-02-21T07:30:43;15.98;;;4.10;;
47329;SDS011;33060;50.178;7.570;2024-02-21T07:33:10;12.50;;;3.70;;
47329;SDS011;33060;50.178;7.570;2024-02-21T07:35:36;9.38;;;3.88;;
47329;SDS011;33060;50.178;7.570;2024-02-21T07:38:08;10.73;;;3.28;;
47329;SDS011;33060;50.178;7.570;2024-02-21T07:40:39;10.48;;;3.10;;
47329;SDS011;33060;50.178;7.570;2024-02-21T07:43:06;9.60;;;4.00;;
47329;SDS011;33060;50.178;7.570;2024-02-21T07:45:32;11.60;;;4.28;;
47329;SDS011;33060;50.178;7.570;2024-02-21T07:47:59;8.68;;;3.15;;
47329;SDS011;33060;50.178;7.570;2024-02-21T07:50:26;10.20;;;4.45;;
47329;SDS011;33060;50.178;7.570;2024-02-21T07:52:53;14.05;;;4.32;;
47329;SDS011;33060;50.178;7.570;2024-02-21T07:57:47;8.68;;;2.80;;
47329;SDS011;33060;50.178;7.570;2024-02-21T08:00:13;15.48;;;5.32;;
47329;SDS011;33060;50.178;7.570;2024-02-21T08:02:47;12.85;;;4.25;;
47329;SDS011;33060;50.178;7.570;2024-02-21T08:05:15;13.23;;;4.30;;
47329;SDS011;33060;50.178;7.570;2024-02-21T08:07:42;12.10;;;4.68;;
47329;SDS011;33060;50.178;7.570;2024-02-21T08:10:09;10.15;;;3.72;;
47329;SDS011;33060;50.178;7.570;2024-02-21T08:12:35;14.98;;;3.75;;
47329;SDS011;33060;50.178;7.570;2024-02-21T08:15:02;10.93;;;3.72;;
47329;SDS011;33060;50.178;7.570;2024-02-21T08:17:30;42.58;;;6.55;;
47329;SDS011;33060;50.178;7.570;2024-02-21T08:22:23;9.77;;;3.47;;
47329;SDS011;33060;50.178;7.570;2024-02-21T08:24:52;8.93;;;3.75;;
47329;SDS011;33060;50.178;7.570;2024-02-21T08:27:20;9.13;;;3.33;;
47329;SDS011;33060;50.178;7.570;2024-02-21T08:29:46;7.70;;;3.22;;
47329;SDS011;33060;50.178;7.570;2024-02-21T08:32:13;10.38;;;3.92;;
47329;SDS011;33060;50.178;7.570;2024-02-21T08:34:40;11.68;;;4.43;;
47329;SDS011;33060;50.178;7.570;2024-02-21T08:37:06;8.98;;;3.38;;
47329;SDS011;33060;50.178;7.570;2024-02-21T08:39:34;8.07;;;3.25;;
47329;SDS011;33060;50.178;7.570;2024-02-21T08:42:01;10.70;;;2.97;;
47329;SDS011;33060;50.178;7.570;2024-02-21T08:44:28;7.95;;;3.20;;
47329;SDS011;33060;50.178;7.570;2024-02-21T08:46:55;7.32;;;3.30;;
47329;SDS011;33060;50.178;7.570;2024-02-21T08:49:23;9.73;;;3.70;;
47329;SDS011;33060;50.178;7.570;2024-02-21T08:51:51;11.52;;;3.95;;
47329;SDS011;33060;50.178;7.570;2024-02-21T08:54:18;10.90;;;4.10;;
47329;SDS011;33060;50.178;7.570;2024-02-21T08:56:45;7.90;;;3.28;;
47329;SDS011;33060;50.178;7.570;2024-02-21T08:59:11;12.18;;;3.35;;
47329;SDS011;33060;50.178;7.570;2024-02-21T09:01:38;9.27;;;3.53;;
47329;SDS011;33060;50.178;7.570;2024-02-21T09:04:05;10.35;;;3.17;;
47329;SDS011;33060;50.178;7.570;2024-02-21T09:06:32;14.48;;;3.95;;
47329;SDS011;33060;50.178;7.570;2024-02-21T09:09:00;7.47;;;3.28;;
47329;SDS011;33060;50.178;7.570;2024-02-21T09:11:27;10.10;;;3.53;;
47329;SDS011;33060;50.178;7.570;2024-02-21T09:13:54;7.25;;;3.25;;
47329;SDS011;33060;50.178;7.570;2024-02-21T09:16:21;9.77;;;2.90;;
47329;SDS011;33060;50.178;7.570;2024-02-21T09:18:49;9.55;;;3.13;;
47329;SDS011;33060;50.178;7.570;2024-02-21T09:21:16;8.88;;;3.10;;
47329;SDS011;33060;50.178;7.570;2024-02-21T09:23:43;8.57;;;3.00;;
47329;SDS011;33060;50.178;7.570;2024-02-21T09:26:11;10.30;;;3.38;;
47329;SDS011;33060;50.178;7.570;2024-02-21T09:28:42;7.40;;;2.90;;
47329;SDS011;33060;50.178;7.570;2024-02-21T09:31:11;9.35;;;3.13;;
47329;SDS011;33060;50.178;7.570;2024-02-21T09:36:05;8.48;;;3.00;;
47329;SDS011;33060;50.178;7.570;2024-02-21T09:38:32;8.48;;;3.25;;
47329;SDS011;33060;50.178;7.570;2024-02-21T09:41:00;12.68;;;3.58;;
47329;SDS011;33060;50.178;7.570;2024-02-21T09:43:36;6.75;;;2.72;;
47329;SDS011;33060;50.178;7.570;2024-02-21T09:46:06;8.93;;;3.75;;
47329;SDS011;33060;50.178;7.570;2024-02-21T09:51:13;7.47;;;2.70;;
47329;SDS011;33060;50.178;7.570;2024-02-21T09:53:41;8.15;;;2.63;;
47329;SDS011;33060;50.178;7.570;2024-02-21T09:56:23;10.25;;;2.40;;
47329;SDS011;33060;50.178;7.570;2024-02-21T09:58:50;7.90;;;2.67;;
47329;SDS011;33060;50.178;7.570;2024-02-21T10:03:59;7.60;;;3.00;;
47329;SDS011;33060;50.178;7.570;2024-02-21T10:06:26;5.88;;;2.47;;
47329;SDS011;33060;50.178;7.570;2024-02-21T10:08:53;8.60;;;2.95;;
47329;SDS011;33060;50.178;7.570;2024-02-21T10:11:23;10.02;;;2.95;;
47329;SDS011;33060;50.178;7.570;2024-02-21T10:13:51;9.05;;;2.92;;
47329;SDS011;33060;50.178;7.570;2024-02-21T10:16:28;8.65;;;2.45;;
47329;SDS011;33060;50.178;7.570;2024-02-21T10:18:55;11.88;;;3.10;;
47329;SDS011;33060;50.178;7.570;2024-02-21T10:21:22;8.38;;;2.65;;
47329;SDS011;33060;50.178;7.570;2024-02-21T10:23:49;14.68;;;3.80;;
47329;SDS011;33060;50.178;7.570;2024-02-21T10:26:17;10.18;;;2.35;;
47329;SDS011;33060;50.178;7.570;2024-02-21T10:28:45;9.80;;;3.40;;
47329;SDS011;33060;50.178;7.570;2024-02-21T10:31:21;8.07;;;2.55;;
47329;SDS011;33060;50.178;7.570;2024-02-21T10:33:58;8.15;;;2.28;;
47329;SDS011;33060;50.178;7.570;2024-02-21T10:36:29;5.97;;;2.58;;
47329;SDS011;33060;50.178;7.570;2024-02-21T10:38:56;9.80;;;2.65;;
47329;SDS011;33060;50.178;7.570;2024-02-21T10:41:23;9.70;;;3.22;;
47329;SDS011;33060;50.178;7.570;2024-02-21T10:43:51;7.90;;;2.60;;
47329;SDS011;33060;50.178;7.570;2024-02-21T10:46:21;7.78;;;2.30;;
47329;SDS011;33060;50.178;7.570;2024-02-21T10:49:07;19.35;;;4.13;;
47329;SDS011;33060;50.178;7.570;2024-02-21T10:51:37;6.18;;;2.55;;
47329;SDS011;33060;50.178;7.570;2024-02-21T10:54:13;9.27;;;3.00;;
47329;SDS011;33060;50.178;7.570;2024-02-21T10:57:03;9.82;;;2.67;;
47329;SDS011;33060;50.178;7.570;2024-02-21T10:59:30;18.55;;;3.55;;
47329;SDS011;33060;50.178;7.570;2024-02-21T11:01:58;5.57;;;2.33;;
47329;SDS011;33060;50.178;7.570;2024-02-21T11:04:26;15.57;;;2.80;;
47329;SDS011;33060;50.178;7.570;2024-02-21T11:06:54;25.92;;;3.95;;
47329;SDS011;33060;50.178;7.570;2024-02-21T11:09:29;10.85;;;2.40;;
47329;SDS011;33060;50.178;7.570;2024-02-21T11:11:58;30.05;;;4.18;;
47329;SDS011;33060;50.178;7.570;2024-02-21T11:14:26;9.35;;;2.67;;
47329;SDS011;33060;50.178;7.570;2024-02-21T11:16:54;17.90;;;2.97;;
47329;SDS011;33060;50.178;7.570;2024-02-21T11:19:23;5.32;;;2.00;;
47329;SDS011;33060;50.178;7.570;2024-02-21T11:21:52;12.10;;;2.83;;
47329;SDS011;33060;50.178;7.570;2024-02-21T11:24:30;10.13;;;2.22;;
47329;SDS011;33060;50.178;7.570;2024-02-21T11:27:20;7.05;;;2.20;;
47329;SDS011;33060;50.178;7.570;2024-02-21T11:29:57;6.18;;;2.30;;
47329;SDS011;33060;50.178;7.570;2024-02-21T11:32:25;6.07;;;2.40;;
47329;SDS011;33060;50.178;7.570;2024-02-21T11:35:00;8.05;;;2.45;;
47329;SDS011;33060;50.178;7.570;2024-02-21T11:37:31;8.13;;;2.38;;
47329;SDS011;33060;50.178;7.570;2024-02-21T11:40:03;8.05;;;2.13;;
47329;SDS011;33060;50.178;7.570;2024-02-21T11:42:33;7.15;;;2.45;;
47329;SDS011;33060;50.178;7.570;2024-02-21T11:44:59;11.45;;;3.00;;
47329;SDS011;33060;50.178;7.570;2024-02-21T11:47:28;7.15;;;1.58;;
47329;SDS011;33060;50.178;7.570;2024-02-21T11:49:55;6.70;;;1.77;;
47329;SDS011;33060;50.178;7.570;2024-02-21T11:52:22;7.15;;;1.60;;
47329;SDS011;33060;50.178;7.570;2024-02-21T11:54:53;5.53;;;1.30;;
47329;SDS011;33060;50.178;7.570;2024-02-21T11:57:21;6.95;;;1.60;;
47329;SDS011;33060;50.178;7.570;2024-02-21T11:59:48;8.20;;;2.08;;
47329;SDS011;33060;50.178;7.570;2024-02-21T12:02:19;7.05;;;1.52;;
47329;SDS011;33060;50.178;7.570;2024-02-21T12:04:45;7.63;;;2.20;;
47329;SDS011;33060;50.178;7.570;2024-02-21T12:07:12;9.82;;;1.95;;
47329;SDS011;33060;50.178;7.570;2024-02-21T12:09:41;8.15;;;2.13;;
47329;SDS011;33060;50.178;7.570;2024-02-21T12:12:08;9.75;;;1.98;;
47329;SDS011;33060;50.178;7.570;2024-02-21T12:14:35;6.75;;;1.73;;
47329;SDS011;33060;50.178;7.570;2024-02-21T12:17:02;4.57;;;1.20;;
47329;SDS011;33060;50.178;7.570;2024-02-21T12:19:33;8.00;;;1.55;;
47329;SDS011;33060;50.178;7.570;2024-02-21T12:22:01;7.82;;;1.80;;
47329;SDS011;33060;50.178;7.570;2024-02-21T12:24:32;15.32;;;2.28;;
47329;SDS011;33060;50.178;7.570;2024-02-21T12:26:59;15.45;;;2.50;;
47329;SDS011;33060;50.178;7.570;2024-02-21T12:29:26;8.38;;;2.38;;
47329;SDS011;33060;50.178;7.570;2024-02-21T12:31:53;13.52;;;2.88;;
47329;SDS011;33060;50.178;7.570;2024-02-21T12:34:21;15.88;;;2.35;;
47329;SDS011;33060;50.178;7.570;2024-02-21T12:37:04;12.55;;;2.40;;
47329;SDS011;33060;50.178;7.570;2024-02-21T12:41:58;7.30;;;1.42;;
47329;SDS011;33060;50.178;7.570;2024-02-21T12:44:25;8.43;;;1.60;;
47329;SDS011;33060;50.178;7.570;2024-02-21T12:46:53;35.50;;;6.30;;
47329;SDS011;33060;50.178;7.570;2024-02-21T12:49:21;7.38;;;1.67;;
47329;SDS011;33060;50.178;7.570;2024-02-21T12:51:48;7.90;;;1.55;;
47329;SDS011;33060;50.178;7.570;2024-02-21T12:54:15;8.60;;;2.30;;
47329;SDS011;33060;50.178;7.570;2024-02-21T12:56:42;8.60;;;1.70;;
47329;SDS011;33060;50.178;7.570;2024-02-21T12:59:09;8.30;;;1.30;;
47329;SDS011;33060;50.178;7.570;2024-02-21T13:01:36;8.73;;;1.83;;
47329;SDS011;33060;50.178;7.570;2024-02-21T13:04:04;5.70;;;1.63;;
47329;SDS011;33060;50.178;7.570;2024-02-21T13:06:31;8.43;;;1.52;;
47329;SDS011;33060;50.178;7.570;2024-02-21T13:08:58;5.57;;;2.05;;
47329;SDS011;33060;50.178;7.570;2024-02-21T13:11:27;10.13;;;1.77;;
47329;SDS011;33060;50.178;7.570;2024-02-21T13:13:58;5.32;;;1.77;;
47329;SDS011;33060;50.178;7.570;2024-02-21T13:16:25;5.75;;;1.80;;
47329;SDS011;33060;50.178;7.570;2024-02-21T13:18:53;7.63;;;1.75;;
47329;SDS011;33060;50.178;7.570;2024-02-21T13:21:20;5.10;;;1.80;;
47329;SDS011;33060;50.178;7.570;2024-02-21T13:23:47;11.52;;;2.45;;
47329;SDS011;33060;50.178;7.570;2024-02-21T13:28:42;7.07;;;2.03;;
47329;SDS011;33060;50.178;7.570;2024-02-21T13:31:11;6.70;;;1.58;;
47329;SDS011;33060;50.178;7.570;2024-02-21T13:36:06;4.70;;;1.00;;
47329;SDS011;33060;50.178;7.570;2024-02-21T13:38:33;5.60;;;1.55;;
47329;SDS011;33060;50.178;7.570;2024-02-21T13:43:27;6.32;;;2.22;;
47329;SDS011;33060;50.178;7.570;2024-02-21T13:45:58;7.75;;;1.42;;
47329;SDS011;33060;50.178;7.570;2024-02-21T13:48:27;8.07;;;2.30;;
47329;SDS011;33060;50.178;7.570;2024-02-21T13:50:55;7.25;;;2.13;;
47329;SDS011;33060;50.178;7.570;2024-02-21T13:55:49;8.02;;;2.85;;
47329;SDS011;33060;50.178;7.570;2024-02-21T14:00:43;7.40;;;3.47;;
47329;SDS011;33060;50.178;7.570;2024-02-21T14:05:37;4.78;;;2.83;;
47329;SDS011;33060;50.178;7.570;2024-02-21T14:08:08;6.90;;;3.13;;
47329;SDS011;33060;50.178;7.570;2024-02-21T14:13:03;7.40;;;3.13;;
47329;SDS011;33060;50.178;7.570;2024-02-21T14:15:30;5.30;;;3.47;;
47329;SDS011;33060;50.178;7.570;2024-02-21T14:17:57;7.13;;;3.50;;
47329;SDS011;33060;50.178;7.570;2024-02-21T14:22:50;8.65;;;2.72;;
47329;SDS011;33060;50.178;7.570;2024-02-21T14:27:44;7.90;;;3.45;;
47329;SDS011;33060;50.178;7.570;2024-02-21T14:30:11;7.32;;;2.80;;
47329;SDS011;33060;50.178;7.570;2024-02-21T14:32:38;6.47;;;3.13;;
47329;SDS011;33060;50.178;7.570;2024-02-21T14:35:09;14.60;;;3.63;;
47329;SDS011;33060;50.178;7.570;2024-02-21T14:40:03;8.15;;;4.32;;
47329;SDS011;33060;50.178;7.570;2024-02-21T14:42:30;9.90;;;4.72;;
47329;SDS011;33060;50.178;7.570;2024-02-21T14:47:31;10.43;;;4.43;;
47329;SDS011;33060;50.178;7.570;2024-02-21T14:49:58;7.80;;;4.22;;
47329;SDS011;33060;50.178;7.570;2024-02-21T14:52:26;6.88;;;3.70;;
47329;SDS011;33060;50.178;7.570;2024-02-21T14:54:54;6.57;;;4.22;;
47329;SDS011;33060;50.178;7.570;2024-02-21T14:57:21;7.60;;;3.95;;
47329;SDS011;33060;50.178;7.570;2024-02-21T14:59:48;8.07;;;4.20;;
47329;SDS011;33060;50.178;7.570;2024-02-21T15:02:16;9.57;;;4.82;;
47329;SDS011;33060;50.178;7.570;2024-02-21T15:04:43;7.72;;;4.28;;
47329;SDS011;33060;50.178;7.570;2024-02-21T15:09:36;10.38;;;3.85;;
47329;SDS011;33060;50.178;7.570;2024-02-21T15:12:03;9.05;;;3.63;;
47329;SDS011;33060;50.178;7.570;2024-02-21T15:14:30;9.18;;;3.40;;
47329;SDS011;33060;50.178;7.570;2024-02-21T15:16:57;6.82;;;2.90;;
47329;SDS011;33060;50.178;7.570;2024-02-21T15:21:50;9.43;;;3.25;;
47329;SDS011;33060;50.178;7.570;2024-02-21T15:24:17;5.78;;;2.63;;
47329;SDS011;33060;50.178;7.570;2024-02-21T15:26:44;8.63;;;3.13;;
47329;SDS011;33060;50.178;7.570;2024-02-21T15:29:10;14.90;;;3.35;;
47329;SDS011;33060;50.178;7.570;2024-02-21T15:34:04;9.25;;;3.10;;
47329;SDS011;33060;50.178;7.570;2024-02-21T15:36:31;13.45;;;5.20;;
47329;SDS011;33060;50.178;7.570;2024-02-21T15:38:57;6.22;;;2.00;;
47329;SDS011;33060;50.178;7.570;2024-02-21T15:41:26;7.60;;;2.67;;
47329;SDS011;33060;50.178;7.570;2024-02-21T15:43:52;6.30;;;2.42;;
47329;SDS011;33060;50.178;7.570;2024-02-21T15:46:20;6.70;;;2.30;;
47329;SDS011;33060;50.178;7.570;2024-02-21T15:51:15;7.25;;;2.78;;
47329;SDS011;33060;50.178;7.570;2024-02-21T15:56:11;4.68;;;1.33;;
47329;SDS011;33060;50.178;7.570;2024-02-21T15:58:41;9.90;;;2.28;;
47329;SDS011;33060;50.178;7.570;2024-02-21T16:01:09;7.50;;;2.20;;
47329;SDS011;33060;50.178;7.570;2024-02-21T16:03:38;10.27;;;2.40;;
47329;SDS011;33060;50.178;7.570;2024-02-21T16:06:07;5.70;;;2.40;;
47329;SDS011;33060;50.178;7.570;2024-02-21T16:08:35;7.45;;;2.47;;
47329;SDS011;33060;50.178;7.570;2024-02-21T16:11:12;6.97;;;2.83;;
47329;SDS011;33060;50.178;7.570;2024-02-21T16:13:44;7.82;;;2.42;;
47329;SDS011;33060;50.178;7.570;2024-02-21T16:16:13;6.25;;;1.90;;
47329;SDS011;33060;50.178;7.570;2024-02-21T16:18:39;5.35;;;1.90;;
47329;SDS011;33060;50.178;7.570;2024-02-21T16:21:06;6.30;;;2.03;;